sensor_id;sensor_type;location;lat;lon;timestamp;P1;durP1;ratioP1;P2;durP2;ratioP2
80127;SDS011;69440;52.118;5.408;2024-03-08T00:01:57;21.27;;;9.98;;
80127;SDS011;69440;52.118;5.408;2024-03-08T00:04:24;24.98;;;10.70;;
80127;SDS011;69440;52.118;5.408;2024-03-08T00:06:50;28.35;;;10.95;;
80127;SDS011;69440;52.118;5.408;2024-03-08T00:09:17;22.95;;;10.90;;
80127;SDS011;69440;52.118;5.408;2024-03-08T00:11:43;24.42;;;10.63;;
80127;SDS011;69440;52.118;5.408;2024-03-08T00:14:10;24.08;;;10.73;;
80127;SDS011;69440;52.118;5.408;2024-03-08T00:16:37;22.98;;;10.25;;
80127;SDS011;69440;52.118;5.408;2024-03-08T00:19:03;25.45;;;10.98;;
80127;SDS011;69440;52.118;5.408;2024-03-08T00:21:30;23.42;;;10.93;;
80127;SDS011;69440;52.118;5.408;2024-03-08T00:23:57;26.10;;;11.75;;
80127;SDS011;69440;52.118;5.408;2024-03-08T00:26:24;22.55;;;10.13;;
80127;SDS011;69440;52.118;5.408;2024-03-08T00:28:51;32.13;;;12.48;;
80127;SDS011;69440;52.118;5.408;2024-03-08T00:33:44;24.83;;;11.05;;
80127;SDS011;69440;52.118;5.408;2024-03-08T00:36:10;23.88;;;11.13;;
80127;SDS011;69440;52.118;5.408;2024-03-08T00:38:37;24.80;;;10.50;;
80127;SDS011;69440;52.118;5.408;2024-03-08T00:41:03;24.35;;;11.07;;
80127;SDS011;69440;52.118;5.408;2024-03-08T00:45:56;24.00;;;10.20;;
80127;SDS011;69440;52.118;5.408;2024-03-08T00:48:24;23.40;;;10.10;;
80127;SDS011;69440;52.118;5.408;2024-03-08T00:50:50;24.52;;;10.38;;
80127;SDS011;69440;52.118;5.408;2024-03-08T00:53:17;22.70;;;10.63;;
80127;SDS011;69440;52.118;5.408;2024-03-08T00:58:12;23.48;;;10.57;;
80127;SDS011;69440;52.118;5.408;2024-03-08T01:00:39;23.35;;;9.65;;
80127;SDS011;69440;52.118;5.408;2024-03-08T01:03:06;21.20;;;10.15;;
80127;SDS011;69440;52.118;5.408;2024-03-08T01:05:33;23.30;;;9.95;;
80127;SDS011;69440;52.118;5.408;2024-03-08T01:08:01;23.63;;;9.65;;
80127;SDS011;69440;52.118;5.408;2024-03-08T01:10:29;24.33;;;11.32;;
80127;SDS011;69440;52.118;5.408;2024-03-08T01:15:23;21.02;;;10.98;;
80127;SDS011;69440;52.118;5.408;2024-03-08T01:17:49;22.63;;;11.00;;
80127;SDS011;69440;52.118;5.408;2024-03-08T01:20:16;25.48;;;11.40;;
80127;SDS011;69440;52.118;5.408;2024-03-08T01:22:44;22.42;;;11.15;;
80127;SDS011;69440;52.118;5.408;2024-03-08T01:27:36;20.35;;;9.77;;
80127;SDS011;69440;52.118;5.408;2024-03-08T01:32:30;26.45;;;10.82;;
80127;SDS011;69440;52.118;5.408;2024-03-08T01:34:56;23.02;;;11.27;;
80127;SDS011;69440;52.118;5.408;2024-03-08T01:39:50;22.98;;;10.68;;
80127;SDS011;69440;52.118;5.408;2024-03-08T01:44:44;24.30;;;10.90;;
80127;SDS011;69440;52.118;5.408;2024-03-08T01:49:37;25.63;;;9.38;;
80127;SDS011;69440;52.118;5.408;2024-03-08T01:52:04;21.35;;;11.57;;
80127;SDS011;69440;52.118;5.408;2024-03-08T01:54:31;23.17;;;10.02;;
80127;SDS011;69440;52.118;5.408;2024-03-08T01:59:25;23.13;;;10.10;;
80127;SDS011;69440;52.118;5.408;2024-03-08T02:01:55;22.35;;;11.20;;
80127;SDS011;69440;52.118;5.408;2024-03-08T02:04:21;23.65;;;10.23;;
80127;SDS011;69440;52.118;5.408;2024-03-08T02:09:14;21.33;;;10.38;;
80127;SDS011;69440;52.118;5.408;2024-03-08T02:11:41;20.73;;;10.07;;
80127;SDS011;69440;52.118;5.408;2024-03-08T02:14:08;23.50;;;10.48;;
80127;SDS011;69440;52.118;5.408;2024-03-08T02:16:35;24.75;;;11.32;;
80127;SDS011;69440;52.118;5.408;2024-03-08T02:21:28;22.33;;;11.05;;
80127;SDS011;69440;52.118;5.408;2024-03-08T02:23:55;24.58;;;10.82;;
80127;SDS011;69440;52.118;5.408;2024-03-08T02:26:23;23.90;;;11.05;;
80127;SDS011;69440;52.118;5.408;2024-03-08T02:28:49;20.40;;;11.10;;
80127;SDS011;69440;52.118;5.408;2024-03-08T02:33:42;23.30;;;11.27;;
80127;SDS011;69440;52.118;5.408;2024-03-08T02:36:09;23.52;;;11.73;;
80127;SDS011;69440;52.118;5.408;2024-03-08T02:38:35;22.80;;;11.05;;
80127;SDS011;69440;52.118;5.408;2024-03-08T02:43:30;20.45;;;10.30;;
80127;SDS011;69440;52.118;5.408;2024-03-08T02:45:56;23.80;;;11.95;;
80127;SDS011;69440;52.118;5.408;2024-03-08T02:48:23;22.30;;;10.77;;
80127;SDS011;69440;52.118;5.408;2024-03-08T02:50:50;22.42;;;10.23;;
80127;SDS011;69440;52.118;5.408;2024-03-08T02:53:17;24.25;;;10.55;;
80127;SDS011;69440;52.118;5.408;2024-03-08T02:55:45;25.98;;;12.85;;
80127;SDS011;69440;52.118;5.408;2024-03-08T02:58:13;27.42;;;11.65;;
80127;SDS011;69440;52.118;5.408;2024-03-08T03:00:40;26.48;;;12.00;;
80127;SDS011;69440;52.118;5.408;2024-03-08T03:03:07;23.38;;;10.65;;
80127;SDS011;69440;52.118;5.408;2024-03-08T03:05:34;23.58;;;11.90;;
80127;SDS011;69440;52.118;5.408;2024-03-08T03:08:02;24.65;;;10.88;;
80127;SDS011;69440;52.118;5.408;2024-03-08T03:10:36;24.45;;;11.00;;
80127;SDS011;69440;52.118;5.408;2024-03-08T03:13:02;23.92;;;11.15;;
80127;SDS011;69440;52.118;5.408;2024-03-08T03:15:30;29.13;;;11.43;;
80127;SDS011;69440;52.118;5.408;2024-03-08T03:17:57;22.25;;;12.07;;
80127;SDS011;69440;52.118;5.408;2024-03-08T03:20:24;22.83;;;11.15;;
80127;SDS011;69440;52.118;5.408;2024-03-08T03:22:58;27.33;;;12.23;;
80127;SDS011;69440;52.118;5.408;2024-03-08T03:25:27;22.73;;;12.02;;
80127;SDS011;69440;52.118;5.408;2024-03-08T03:28:02;20.83;;;10.52;;
80127;SDS011;69440;52.118;5.408;2024-03-08T03:30:29;23.35;;;12.05;;
80127;SDS011;69440;52.118;5.408;2024-03-08T03:33:01;23.65;;;12.68;;
80127;SDS011;69440;52.118;5.408;2024-03-08T03:35:33;24.77;;;12.05;;
80127;SDS011;69440;52.118;5.408;2024-03-08T03:38:00;22.63;;;11.15;;
80127;SDS011;69440;52.118;5.408;2024-03-08T03:40:34;25.80;;;12.63;;
80127;SDS011;69440;52.118;5.408;2024-03-08T03:43:05;24.85;;;12.38;;
80127;SDS011;69440;52.118;5.408;2024-03-08T03:48:06;21.10;;;9.63;;
80127;SDS011;69440;52.118;5.408;2024-03-08T03:50:36;22.40;;;10.18;;
80127;SDS011;69440;52.118;5.408;2024-03-08T03:53:03;22.48;;;10.57;;
80127;SDS011;69440;52.118;5.408;2024-03-08T03:55:30;26.48;;;11.55;;
80127;SDS011;69440;52.118;5.408;2024-03-08T03:57:56;23.15;;;11.20;;
80127;SDS011;69440;52.118;5.408;2024-03-08T04:00:25;23.23;;;10.80;;
80127;SDS011;69440;52.118;5.408;2024-03-08T04:02:53;25.15;;;11.75;;
80127;SDS011;69440;52.118;5.408;2024-03-08T04:05:21;22.05;;;11.32;;
80127;SDS011;69440;52.118;5.408;2024-03-08T04:07:47;25.77;;;12.35;;
80127;SDS011;69440;52.118;5.408;2024-03-08T04:10:14;22.08;;;11.25;;
80127;SDS011;69440;52.118;5.408;2024-03-08T04:15:07;21.88;;;10.10;;
80127;SDS011;69440;52.118;5.408;2024-03-08T04:17:34;23.52;;;12.05;;
80127;SDS011;69440;52.118;5.408;2024-03-08T04:20:03;25.05;;;11.68;;
80127;SDS011;69440;52.118;5.408;2024-03-08T04:22:38;22.02;;;10.80;;
80127;SDS011;69440;52.118;5.408;2024-03-08T04:25:08;23.05;;;11.38;;
80127;SDS011;69440;52.118;5.408;2024-03-08T04:27:35;24.20;;;12.32;;
80127;SDS011;69440;52.118;5.408;2024-03-08T04:32:29;22.98;;;11.63;;
80127;SDS011;69440;52.118;5.408;2024-03-08T04:34:56;21.73;;;11.07;;
80127;SDS011;69440;52.118;5.408;2024-03-08T04:37:23;23.77;;;11.65;;
80127;SDS011;69440;52.118;5.408;2024-03-08T04:39:50;21.63;;;11.43;;
80127;SDS011;69440;52.118;5.408;2024-03-08T04:42:16;22.92;;;12.20;;
80127;SDS011;69440;52.118;5.408;2024-03-08T04:44:44;21.02;;;11.73;;
80127;SDS011;69440;52.118;5.408;2024-03-08T04:47:11;24.00;;;11.02;;
80127;SDS011;69440;52.118;5.408;2024-03-08T04:52:04;22.83;;;11.45;;
80127;SDS011;69440;52.118;5.408;2024-03-08T04:54:31;28.02;;;12.57;;
80127;SDS011;69440;52.118;5.408;2024-03-08T04:56:57;24.17;;;12.15;;
80127;SDS011;69440;52.118;5.408;2024-03-08T04:59:26;26.85;;;12.57;;
80127;SDS011;69440;52.118;5.408;2024-03-08T05:01:54;23.67;;;11.75;;
80127;SDS011;69440;52.118;5.408;2024-03-08T05:04:20;23.65;;;11.00;;
80127;SDS011;69440;52.118;5.408;2024-03-08T05:06:47;24.30;;;12.35;;
80127;SDS011;69440;52.118;5.408;2024-03-08T05:09:14;25.33;;;12.15;;
80127;SDS011;69440;52.118;5.408;2024-03-08T05:11:42;26.33;;;12.73;;
80127;SDS011;69440;52.118;5.408;2024-03-08T05:14:10;20.98;;;11.30;;
80127;SDS011;69440;52.118;5.408;2024-03-08T05:16:37;24.25;;;11.90;;
80127;SDS011;69440;52.118;5.408;2024-03-08T05:21:30;25.50;;;11.52;;
80127;SDS011;69440;52.118;5.408;2024-03-08T05:23:56;24.70;;;12.13;;
80127;SDS011;69440;52.118;5.408;2024-03-08T05:28:49;20.92;;;11.82;;
80127;SDS011;69440;52.118;5.408;2024-03-08T05:31:19;21.98;;;11.05;;
80127;SDS011;69440;52.118;5.408;2024-03-08T05:36:15;22.40;;;10.90;;
80127;SDS011;69440;52.118;5.408;2024-03-08T05:38:45;20.80;;;11.10;;
80127;SDS011;69440;52.118;5.408;2024-03-08T05:41:12;22.33;;;11.07;;
80127;SDS011;69440;52.118;5.408;2024-03-08T05:43:40;25.70;;;12.13;;
80127;SDS011;69440;52.118;5.408;2024-03-08T05:46:06;26.83;;;13.75;;
80127;SDS011;69440;52.118;5.408;2024-03-08T05:51:00;22.63;;;11.05;;
80127;SDS011;69440;52.118;5.408;2024-03-08T05:53:26;21.52;;;10.75;;
80127;SDS011;69440;52.118;5.408;2024-03-08T05:55:53;21.92;;;11.35;;
80127;SDS011;69440;52.118;5.408;2024-03-08T05:58:20;27.80;;;12.82;;
80127;SDS011;69440;52.118;5.408;2024-03-08T06:03:18;25.90;;;11.77;;
80127;SDS011;69440;52.118;5.408;2024-03-08T06:05:50;23.02;;;10.85;;
80127;SDS011;69440;52.118;5.408;2024-03-08T06:08:17;27.27;;;11.73;;
80127;SDS011;69440;52.118;5.408;2024-03-08T06:10:45;22.52;;;11.88;;
80127;SDS011;69440;52.118;5.408;2024-03-08T06:13:12;22.75;;;11.65;;
80127;SDS011;69440;52.118;5.408;2024-03-08T06:15:39;23.48;;;11.93;;
80127;SDS011;69440;52.118;5.408;2024-03-08T06:18:05;22.30;;;11.65;;
80127;SDS011;69440;52.118;5.408;2024-03-08T06:20:32;25.50;;;12.57;;
80127;SDS011;69440;52.118;5.408;2024-03-08T06:22:59;20.85;;;10.45;;
80127;SDS011;69440;52.118;5.408;2024-03-08T06:25:26;26.52;;;12.23;;
80127;SDS011;69440;52.118;5.408;2024-03-08T06:30:19;24.63;;;10.57;;
80127;SDS011;69440;52.118;5.408;2024-03-08T06:32:46;22.70;;;11.93;;
80127;SDS011;69440;52.118;5.408;2024-03-08T06:35:13;25.00;;;11.70;;
80127;SDS011;69440;52.118;5.408;2024-03-08T06:37:43;24.13;;;11.93;;
80127;SDS011;69440;52.118;5.408;2024-03-08T06:40:11;23.77;;;11.98;;
80127;SDS011;69440;52.118;5.408;2024-03-08T06:42:41;25.35;;;12.18;;
80127;SDS011;69440;52.118;5.408;2024-03-08T06:45:08;25.95;;;11.95;;
80127;SDS011;69440;52.118;5.408;2024-03-08T06:47:36;22.70;;;11.25;;
80127;SDS011;69440;52.118;5.408;2024-03-08T06:50:03;25.52;;;12.05;;
80127;SDS011;69440;52.118;5.408;2024-03-08T06:52:30;26.42;;;12.85;;
80127;SDS011;69440;52.118;5.408;2024-03-08T06:57:24;23.00;;;10.93;;
80127;SDS011;69440;52.118;5.408;2024-03-08T06:59:50;27.77;;;12.23;;
80127;SDS011;69440;52.118;5.408;2024-03-08T07:02:18;26.83;;;12.95;;
80127;SDS011;69440;52.118;5.408;2024-03-08T07:04:45;21.02;;;11.85;;
80127;SDS011;69440;52.118;5.408;2024-03-08T07:09:38;24.80;;;11.52;;
80127;SDS011;69440;52.118;5.408;2024-03-08T07:12:04;22.80;;;11.20;;
80127;SDS011;69440;52.118;5.408;2024-03-08T07:14:31;24.90;;;12.68;;
80127;SDS011;69440;52.118;5.408;2024-03-08T07:16:58;24.90;;;12.30;;
80127;SDS011;69440;52.118;5.408;2024-03-08T07:21:51;24.25;;;11.20;;
80127;SDS011;69440;52.118;5.408;2024-03-08T07:24:17;23.80;;;12.55;;
80127;SDS011;69440;52.118;5.408;2024-03-08T07:29:10;23.98;;;12.55;;
80127;SDS011;69440;52.118;5.408;2024-03-08T07:34:03;23.73;;;12.20;;
80127;SDS011;69440;52.118;5.408;2024-03-08T07:36:31;24.13;;;11.77;;
80127;SDS011;69440;52.118;5.408;2024-03-08T07:41:24;28.20;;;12.00;;
80127;SDS011;69440;52.118;5.408;2024-03-08T07:46:18;23.42;;;12.90;;
80127;SDS011;69440;52.118;5.408;2024-03-08T07:48:45;23.33;;;11.63;;
80127;SDS011;69440;52.118;5.408;2024-03-08T07:51:12;28.52;;;12.75;;
80127;SDS011;69440;52.118;5.408;2024-03-08T07:56:07;22.50;;;10.93;;
80127;SDS011;69440;52.118;5.408;2024-03-08T07:58:35;26.83;;;12.15;;
80127;SDS011;69440;52.118;5.408;2024-03-08T08:01:02;25.48;;;12.55;;
80127;SDS011;69440;52.118;5.408;2024-03-08T08:03:29;25.20;;;12.43;;
80127;SDS011;69440;52.118;5.408;2024-03-08T08:05:55;28.88;;;12.35;;
80127;SDS011;69440;52.118;5.408;2024-03-08T08:10:48;21.73;;;12.55;;
80127;SDS011;69440;52.118;5.408;2024-03-08T08:13:16;28.58;;;14.15;;
80127;SDS011;69440;52.118;5.408;2024-03-08T08:15:44;25.20;;;12.68;;
80127;SDS011;69440;52.118;5.408;2024-03-08T08:18:12;25.58;;;13.48;;
80127;SDS011;69440;52.118;5.408;2024-03-08T08:20:40;26.08;;;12.43;;
80127;SDS011;69440;52.118;5.408;2024-03-08T08:23:06;24.17;;;13.80;;
80127;SDS011;69440;52.118;5.408;2024-03-08T08:28:01;23.45;;;12.50;;
80127;SDS011;69440;52.118;5.408;2024-03-08T08:30:30;27.65;;;13.50;;
80127;SDS011;69440;52.118;5.408;2024-03-08T08:32:59;24.48;;;13.27;;
80127;SDS011;69440;52.118;5.408;2024-03-08T08:35:27;23.20;;;12.65;;
80127;SDS011;69440;52.118;5.408;2024-03-08T08:37:55;23.25;;;12.50;;
80127;SDS011;69440;52.118;5.408;2024-03-08T08:40:22;26.05;;;13.93;;
80127;SDS011;69440;52.118;5.408;2024-03-08T08:42:48;24.65;;;14.07;;
80127;SDS011;69440;52.118;5.408;2024-03-08T08:45:15;25.42;;;12.50;;
80127;SDS011;69440;52.118;5.408;2024-03-08T08:47:49;24.42;;;12.43;;
80127;SDS011;69440;52.118;5.408;2024-03-08T08:52:49;23.58;;;13.27;;
80127;SDS011;69440;52.118;5.408;2024-03-08T08:55:15;26.20;;;12.38;;
80127;SDS011;69440;52.118;5.408;2024-03-08T08:57:47;27.65;;;13.27;;
80127;SDS011;69440;52.118;5.408;2024-03-08T09:00:14;25.65;;;12.98;;
80127;SDS011;69440;52.118;5.408;2024-03-08T09:02:45;20.80;;;12.23;;
80127;SDS011;69440;52.118;5.408;2024-03-08T09:05:11;25.33;;;13.02;;
80127;SDS011;69440;52.118;5.408;2024-03-08T09:07:38;22.55;;;12.10;;
80127;SDS011;69440;52.118;5.408;2024-03-08T09:10:05;23.02;;;11.85;;
80127;SDS011;69440;52.118;5.408;2024-03-08T09:12:43;25.00;;;12.60;;
80127;SDS011;69440;52.118;5.408;2024-03-08T09:15:09;26.42;;;13.10;;
80127;SDS011;69440;52.118;5.408;2024-03-08T09:17:39;25.13;;;13.88;;
80127;SDS011;69440;52.118;5.408;2024-03-08T09:20:07;22.60;;;12.88;;
80127;SDS011;69440;52.118;5.408;2024-03-08T09:22:43;24.83;;;13.60;;
80127;SDS011;69440;52.118;5.408;2024-03-08T09:25:10;22.98;;;12.38;;
80127;SDS011;69440;52.118;5.408;2024-03-08T09:27:37;26.15;;;13.88;;
80127;SDS011;69440;52.118;5.408;2024-03-08T09:30:05;23.23;;;12.95;;
80127;SDS011;69440;52.118;5.408;2024-03-08T09:32:32;24.92;;;14.07;;
80127;SDS011;69440;52.118;5.408;2024-03-08T09:34:59;22.98;;;13.48;;
80127;SDS011;69440;52.118;5.408;2024-03-08T09:37:27;25.73;;;13.43;;
80127;SDS011;69440;52.118;5.408;2024-03-08T09:39:53;22.92;;;13.63;;
80127;SDS011;69440;52.118;5.408;2024-03-08T09:42:20;26.90;;;13.73;;
80127;SDS011;69440;52.118;5.408;2024-03-08T09:44:46;23.23;;;12.43;;
80127;SDS011;69440;52.118;5.408;2024-03-08T09:47:14;22.10;;;13.02;;
80127;SDS011;69440;52.118;5.408;2024-03-08T09:49:41;23.38;;;12.32;;
80127;SDS011;69440;52.118;5.408;2024-03-08T09:52:09;23.20;;;13.52;;
80127;SDS011;69440;52.118;5.408;2024-03-08T09:54:39;23.17;;;12.60;;
80127;SDS011;69440;52.118;5.408;2024-03-08T09:57:06;21.60;;;11.75;;
80127;SDS011;69440;52.118;5.408;2024-03-08T09:59:35;23.75;;;13.73;;
80127;SDS011;69440;52.118;5.408;2024-03-08T10:02:04;25.08;;;13.07;;
80127;SDS011;69440;52.118;5.408;2024-03-08T10:04:32;23.27;;;13.18;;
80127;SDS011;69440;52.118;5.408;2024-03-08T10:07:00;21.60;;;12.43;;
80127;SDS011;69440;52.118;5.408;2024-03-08T10:09:27;22.58;;;12.82;;
80127;SDS011;69440;52.118;5.408;2024-03-08T10:11:57;22.20;;;12.93;;
80127;SDS011;69440;52.118;5.408;2024-03-08T10:14:24;23.00;;;12.82;;
80127;SDS011;69440;52.118;5.408;2024-03-08T10:16:53;23.08;;;12.27;;
80127;SDS011;69440;52.118;5.408;2024-03-08T10:19:20;19.50;;;12.00;;
80127;SDS011;69440;52.118;5.408;2024-03-08T10:21:51;23.10;;;12.30;;
80127;SDS011;69440;52.118;5.408;2024-03-08T10:24:22;20.85;;;11.98;;
80127;SDS011;69440;52.118;5.408;2024-03-08T10:26:53;22.27;;;12.30;;
80127;SDS011;69440;52.118;5.408;2024-03-08T10:29:20;22.55;;;13.05;;
80127;SDS011;69440;52.118;5.408;2024-03-08T10:31:47;22.85;;;11.85;;
80127;SDS011;69440;52.118;5.408;2024-03-08T10:34:13;20.05;;;11.90;;
80127;SDS011;69440;52.118;5.408;2024-03-08T10:36:40;19.92;;;11.80;;
80127;SDS011;69440;52.118;5.408;2024-03-08T10:39:10;21.90;;;11.85;;
80127;SDS011;69440;52.118;5.408;2024-03-08T10:41:49;21.73;;;12.05;;
80127;SDS011;69440;52.118;5.408;2024-03-08T10:44:25;19.13;;;11.73;;
80127;SDS011;69440;52.118;5.408;2024-03-08T10:49:32;20.95;;;11.55;;
80127;SDS011;69440;52.118;5.408;2024-03-08T10:52:05;20.05;;;11.50;;
80127;SDS011;69440;52.118;5.408;2024-03-08T10:54:36;21.73;;;11.43;;
80127;SDS011;69440;52.118;5.408;2024-03-08T10:57:10;17.73;;;11.52;;
80127;SDS011;69440;52.118;5.408;2024-03-08T10:59:39;20.65;;;11.32;;
80127;SDS011;69440;52.118;5.408;2024-03-08T11:02:05;18.77;;;11.63;;
80127;SDS011;69440;52.118;5.408;2024-03-08T11:04:32;17.50;;;10.75;;
80127;SDS011;69440;52.118;5.408;2024-03-08T11:07:00;18.95;;;11.27;;
80127;SDS011;69440;52.118;5.408;2024-03-08T11:09:35;21.70;;;12.00;;
80127;SDS011;69440;52.118;5.408;2024-03-08T11:12:22;18.48;;;10.40;;
80127;SDS011;69440;52.118;5.408;2024-03-08T11:15:02;20.13;;;11.65;;
80127;SDS011;69440;52.118;5.408;2024-03-08T11:20:10;19.15;;;11.45;;
80127;SDS011;69440;52.118;5.408;2024-03-08T11:22:59;20.95;;;11.75;;
80127;SDS011;69440;52.118;5.408;2024-03-08T11:28:10;15.52;;;11.10;;
80127;SDS011;69440;52.118;5.408;2024-03-08T11:33:31;17.15;;;10.77;;
80127;SDS011;69440;52.118;5.408;2024-03-08T11:38:41;19.30;;;10.82;;
80127;SDS011;69440;52.118;5.408;2024-03-08T11:41:08;14.98;;;9.32;;
80127;SDS011;69440;52.118;5.408;2024-03-08T11:43:34;17.73;;;10.13;;
80127;SDS011;69440;52.118;5.408;2024-03-08T11:46:08;15.82;;;9.40;;
80127;SDS011;69440;52.118;5.408;2024-03-08T11:48:35;15.93;;;10.10;;
80127;SDS011;69440;52.118;5.408;2024-03-08T11:51:04;15.32;;;9.98;;
80127;SDS011;69440;52.118;5.408;2024-03-08T11:53:34;15.73;;;9.00;;
80127;SDS011;69440;52.118;5.408;2024-03-08T11:56:08;14.15;;;8.90;;
80127;SDS011;69440;52.118;5.408;2024-03-08T11:58:39;12.55;;;7.95;;
80127;SDS011;69440;52.118;5.408;2024-03-08T12:01:07;14.15;;;9.00;;
80127;SDS011;69440;52.118;5.408;2024-03-08T12:03:43;17.80;;;9.65;;
80127;SDS011;69440;52.118;5.408;2024-03-08T12:06:12;14.07;;;9.63;;
80127;SDS011;69440;52.118;5.408;2024-03-08T12:11:07;16.35;;;9.95;;
80127;SDS011;69440;52.118;5.408;2024-03-08T12:13:36;13.18;;;8.88;;
80127;SDS011;69440;52.118;5.408;2024-03-08T12:16:03;14.13;;;9.77;;
80127;SDS011;69440;52.118;5.408;2024-03-08T12:18:34;17.00;;;10.90;;
80127;SDS011;69440;52.118;5.408;2024-03-08T12:23:35;15.52;;;9.65;;
80127;SDS011;69440;52.118;5.408;2024-03-08T12:28:42;13.50;;;10.05;;
80127;SDS011;69440;52.118;5.408;2024-03-08T12:31:15;16.70;;;10.57;;
80127;SDS011;69440;52.118;5.408;2024-03-08T12:33:50;14.45;;;10.82;;
80127;SDS011;69440;52.118;5.408;2024-03-08T12:36:22;13.38;;;10.15;;
80127;SDS011;69440;52.118;5.408;2024-03-08T12:38:49;13.60;;;10.73;;
80127;SDS011;69440;52.118;5.408;2024-03-08T12:41:16;13.52;;;10.20;;
80127;SDS011;69440;52.118;5.408;2024-03-08T12:43:45;14.00;;;11.18;;
80127;SDS011;69440;52.118;5.408;2024-03-08T12:46:15;14.38;;;10.55;;
80127;SDS011;69440;52.118;5.408;2024-03-08T12:48:42;16.00;;;11.13;;
80127;SDS011;69440;52.118;5.408;2024-03-08T12:51:13;12.80;;;10.48;;
80127;SDS011;69440;52.118;5.408;2024-03-08T12:53:42;13.85;;;10.38;;
80127;SDS011;69440;52.118;5.408;2024-03-08T12:56:12;15.25;;;11.20;;
80127;SDS011;69440;52.118;5.408;2024-03-08T12:58:39;13.25;;;10.55;;
80127;SDS011;69440;52.118;5.408;2024-03-08T13:01:07;13.93;;;10.38;;
80127;SDS011;69440;52.118;5.408;2024-03-08T13:03:36;13.02;;;10.45;;
80127;SDS011;69440;52.118;5.408;2024-03-08T13:06:03;12.48;;;10.05;;
80127;SDS011;69440;52.118;5.408;2024-03-08T13:08:37;12.57;;;10.25;;
80127;SDS011;69440;52.118;5.408;2024-03-08T13:11:07;12.43;;;10.40;;
80127;SDS011;69440;52.118;5.408;2024-03-08T13:13:34;12.13;;;10.45;;
80127;SDS011;69440;52.118;5.408;2024-03-08T13:16:04;12.65;;;10.10;;
80127;SDS011;69440;52.118;5.408;2024-03-08T13:18:34;12.30;;;10.55;;
80127;SDS011;69440;52.118;5.408;2024-03-08T13:21:01;14.20;;;11.45;;
80127;SDS011;69440;52.118;5.408;2024-03-08T13:23:32;13.23;;;10.95;;
80127;SDS011;69440;52.118;5.408;2024-03-08T13:26:12;15.55;;;10.93;;
80127;SDS011;69440;52.118;5.408;2024-03-08T13:28:45;14.43;;;11.48;;
80127;SDS011;69440;52.118;5.408;2024-03-08T13:31:12;14.48;;;11.07;;
80127;SDS011;69440;52.118;5.408;2024-03-08T13:33:41;13.82;;;11.02;;
80127;SDS011;69440;52.118;5.408;2024-03-08T13:36:13;13.57;;;11.50;;
80127;SDS011;69440;52.118;5.408;2024-03-08T13:38:46;15.93;;;11.50;;
80127;SDS011;69440;52.118;5.408;2024-03-08T13:41:14;13.50;;;11.05;;
80127;SDS011;69440;52.118;5.408;2024-03-08T13:43:46;16.90;;;11.35;;
80127;SDS011;69440;52.118;5.408;2024-03-08T13:46:16;14.50;;;11.27;;
80127;SDS011;69440;52.118;5.408;2024-03-08T13:48:44;13.10;;;11.32;;
80127;SDS011;69440;52.118;5.408;2024-03-08T13:51:11;12.70;;;10.77;;
80127;SDS011;69440;52.118;5.408;2024-03-08T13:53:39;15.10;;;12.18;;
80127;SDS011;69440;52.118;5.408;2024-03-08T13:56:06;15.35;;;12.18;;
80127;SDS011;69440;52.118;5.408;2024-03-08T13:58:36;12.85;;;10.85;;
80127;SDS011;69440;52.118;5.408;2024-03-08T14:01:03;13.35;;;11.60;;
80127;SDS011;69440;52.118;5.408;2024-03-08T14:03:32;12.60;;;11.18;;
80127;SDS011;69440;52.118;5.408;2024-03-08T14:05:58;15.90;;;11.88;;
80127;SDS011;69440;52.118;5.408;2024-03-08T14:08:26;14.98;;;12.05;;
80127;SDS011;69440;52.118;5.408;2024-03-08T14:10:53;13.57;;;10.98;;
80127;SDS011;69440;52.118;5.408;2024-03-08T14:13:20;13.50;;;10.98;;
80127;SDS011;69440;52.118;5.408;2024-03-08T14:15:47;13.45;;;11.73;;
80127;SDS011;69440;52.118;5.408;2024-03-08T14:18:14;12.60;;;11.23;;
80127;SDS011;69440;52.118;5.408;2024-03-08T14:20:42;14.65;;;11.52;;
80127;SDS011;69440;52.118;5.408;2024-03-08T14:23:08;14.38;;;11.63;;
80127;SDS011;69440;52.118;5.408;2024-03-08T14:25:34;15.27;;;11.75;;
80127;SDS011;69440;52.118;5.408;2024-03-08T14:28:01;14.13;;;11.45;;
80127;SDS011;69440;52.118;5.408;2024-03-08T14:30:30;13.95;;;11.68;;
80127;SDS011;69440;52.118;5.408;2024-03-08T14:33:05;14.60;;;12.95;;
80127;SDS011;69440;52.118;5.408;2024-03-08T14:35:32;15.30;;;12.50;;
80127;SDS011;69440;52.118;5.408;2024-03-08T14:37:58;15.57;;;11.80;;
80127;SDS011;69440;52.118;5.408;2024-03-08T14:40:25;14.40;;;11.20;;
80127;SDS011;69440;52.118;5.408;2024-03-08T14:42:52;15.30;;;12.55;;
80127;SDS011;69440;52.118;5.408;2024-03-08T14:45:19;16.00;;;12.65;;
80127;SDS011;69440;52.118;5.408;2024-03-08T14:47:46;14.43;;;11.95;;
80127;SDS011;69440;52.118;5.408;2024-03-08T14:50:19;15.77;;;11.70;;
80127;SDS011;69440;52.118;5.408;2024-03-08T14:52:46;14.45;;;11.55;;
80127;SDS011;69440;52.118;5.408;2024-03-08T14:55:16;16.23;;;11.93;;
80127;SDS011;69440;52.118;5.408;2024-03-08T14:57:46;15.63;;;11.25;;
80127;SDS011;69440;52.118;5.408;2024-03-08T15:00:13;16.17;;;11.88;;
80127;SDS011;69440;52.118;5.408;2024-03-08T15:02:45;15.88;;;13.13;;
80127;SDS011;69440;52.118;5.408;2024-03-08T15:05:13;16.38;;;12.27;;
80127;SDS011;69440;52.118;5.408;2024-03-08T15:07:40;14.90;;;11.82;;
80127;SDS011;69440;52.118;5.408;2024-03-08T15:10:07;14.70;;;10.73;;
80127;SDS011;69440;52.118;5.408;2024-03-08T15:12:39;16.80;;;11.85;;
80127;SDS011;69440;52.118;5.408;2024-03-08T15:15:07;14.38;;;11.68;;
80127;SDS011;69440;52.118;5.408;2024-03-08T15:17:34;15.90;;;11.27;;
80127;SDS011;69440;52.118;5.408;2024-03-08T15:20:01;14.73;;;11.13;;
80127;SDS011;69440;52.118;5.408;2024-03-08T15:22:28;17.58;;;11.98;;
80127;SDS011;69440;52.118;5.408;2024-03-08T15:24:54;14.30;;;10.43;;
80127;SDS011;69440;52.118;5.408;2024-03-08T15:27:22;16.67;;;11.20;;
80127;SDS011;69440;52.118;5.408;2024-03-08T15:29:50;18.60;;;11.95;;
80127;SDS011;69440;52.118;5.408;2024-03-08T15:32:18;16.08;;;11.45;;
80127;SDS011;69440;52.118;5.408;2024-03-08T15:34:48;14.13;;;10.40;;
80127;SDS011;69440;52.118;5.408;2024-03-08T15:37:18;15.93;;;11.23;;
80127;SDS011;69440;52.118;5.408;2024-03-08T15:39:44;14.48;;;10.90;;
80127;SDS011;69440;52.118;5.408;2024-03-08T15:42:11;15.00;;;11.23;;
80127;SDS011;69440;52.118;5.408;2024-03-08T15:44:39;17.05;;;11.85;;
80127;SDS011;69440;52.118;5.408;2024-03-08T15:47:07;17.85;;;11.80;;
80127;SDS011;69440;52.118;5.408;2024-03-08T15:49:37;14.63;;;10.88;;
80127;SDS011;69440;52.118;5.408;2024-03-08T15:52:03;16.60;;;11.52;;
80127;SDS011;69440;52.118;5.408;2024-03-08T15:54:32;16.33;;;11.35;;
80127;SDS011;69440;52.118;5.408;2024-03-08T15:56:59;17.05;;;11.05;;
80127;SDS011;69440;52.118;5.408;2024-03-08T15:59:25;16.40;;;11.00;;
80127;SDS011;69440;52.118;5.408;2024-03-08T16:01:53;16.75;;;10.57;;
80127;SDS011;69440;52.118;5.408;2024-03-08T16:04:19;16.85;;;11.85;;
80127;SDS011;69440;52.118;5.408;2024-03-08T16:06:48;14.50;;;9.70;;
80127;SDS011;69440;52.118;5.408;2024-03-08T16:09:14;15.27;;;10.60;;
80127;SDS011;69440;52.118;5.408;2024-03-08T16:11:43;14.80;;;10.07;;
80127;SDS011;69440;52.118;5.408;2024-03-08T16:14:11;16.65;;;11.00;;
80127;SDS011;69440;52.118;5.408;2024-03-08T16:16:38;15.10;;;10.73;;